createdAt,value
2022-08-25T00:02:02.946Z,5.73
2022-08-25T00:04:33.783Z,5.70
2022-08-25T00:07:04.201Z,5.40
2022-08-25T00:09:34.377Z,5.40
2022-08-25T00:12:04.407Z,5.63
2022-08-25T00:14:36.013Z,5.47
2022-08-25T00:17:06.204Z,5.13
2022-08-25T00:19:38.480Z,5.17
2022-08-25T00:22:08.006Z,5.20
2022-08-25T00:24:36.620Z,5.50
2022-08-25T00:27:06.845Z,5.67
2022-08-25T00:29:38.082Z,5.27
2022-08-25T00:32:06.922Z,6.47
2022-08-25T00:34:38.743Z,5.47
2022-08-25T00:37:09.223Z,6.87
2022-08-25T00:39:38.423Z,6.93
2022-08-25T00:42:15.778Z,6.03
2022-08-25T00:44:45.403Z,6.27
2022-08-25T00:47:14.146Z,6.87
2022-08-25T00:49:47.328Z,6.60
2022-08-25T00:52:18.936Z,5.40
2022-08-25T00:54:50.675Z,6.90
2022-08-25T00:57:34.748Z,6.10
2022-08-25T01:00:08.133Z,6.53
2022-08-25T01:02:36.491Z,8.07
2022-08-25T01:05:07.309Z,7.37
2022-08-25T01:07:36.114Z,8.00
2022-08-25T01:10:07.955Z,9.00
2022-08-25T01:12:37.581Z,8.77
2022-08-25T01:15:09.565Z,10.17
2022-08-25T01:17:48.022Z,10.10
2022-08-25T01:20:19.792Z,10.80
2022-08-25T01:22:55.078Z,11.80
2022-08-25T01:25:32.233Z,12.23
2022-08-25T01:28:00.814Z,11.77
2022-08-25T01:30:29.217Z,13.27
2022-08-25T01:32:57.847Z,12.20
2022-08-25T01:35:26.127Z,12.87
2022-08-25T01:37:55.821Z,13.60
2022-08-25T01:40:24.168Z,14.23
2022-08-25T01:43:03.227Z,12.67
2022-08-25T01:45:31.540Z,13.03
2022-08-25T01:47:59.968Z,13.17
2022-08-25T01:50:28.341Z,13.57
2022-08-25T01:53:06.883Z,13.43
2022-08-25T01:55:51.610Z,13.43
2022-08-25T01:58:21.802Z,12.80
2022-08-25T02:00:52.029Z,11.77
2022-08-25T02:03:20.726Z,12.70
2022-08-25T02:05:49.406Z,12.13
2022-08-25T02:08:19.322Z,11.20
2022-08-25T02:10:47.799Z,10.97
2022-08-25T02:13:17.137Z,11.00
2022-08-25T02:15:49.286Z,10.50
2022-08-25T02:18:18.536Z,10.47
2022-08-25T02:20:47.604Z,9.33
2022-08-25T02:23:16.167Z,9.73
2022-08-25T02:25:45.895Z,9.23
2022-08-25T02:28:14.298Z,9.30
2022-08-25T02:30:44.124Z,8.60
2022-08-25T02:33:12.775Z,8.93
2022-08-25T02:35:41.306Z,8.33
2022-08-25T02:38:09.665Z,8.17
2022-08-25T02:40:37.966Z,7.17
2022-08-25T02:43:07.593Z,8.47
2022-08-25T02:45:36.753Z,7.27
2022-08-25T02:48:05.332Z,7.40
2022-08-25T02:50:33.790Z,7.00
2022-08-25T02:53:02.113Z,6.83
2022-08-25T02:55:30.464Z,6.40
2022-08-25T02:58:02.786Z,6.83
2022-08-25T03:00:32.501Z,6.20
2022-08-25T03:03:02.806Z,6.67
2022-08-25T03:05:31.117Z,6.20
2022-08-25T03:07:59.862Z,6.33
2022-08-25T03:10:28.282Z,6.23
2022-08-25T03:12:56.539Z,5.90
2022-08-25T03:15:27.645Z,6.00
2022-08-25T03:18:01.200Z,6.30
2022-08-25T03:20:29.718Z,6.80
2022-08-25T03:22:58.029Z,6.23
2022-08-25T03:25:42.923Z,6.17
2022-08-25T03:28:11.293Z,6.30
2022-08-25T03:30:39.782Z,6.07
2022-08-25T03:33:09.777Z,5.70
2022-08-25T03:35:38.638Z,6.80
2022-08-25T03:38:07.497Z,6.37
2022-08-25T03:40:35.824Z,6.63
2022-08-25T03:43:04.137Z,5.17
2022-08-25T03:45:32.614Z,5.00
2022-08-25T03:48:00.941Z,5.73
2022-08-25T03:50:31.133Z,5.80
2022-08-25T03:52:59.537Z,5.40
2022-08-25T03:55:28.293Z,4.93
2022-08-25T03:57:58.133Z,5.40
2022-08-25T04:00:26.535Z,5.03
2022-08-25T04:02:54.953Z,5.80
2022-08-25T04:05:23.312Z,5.10
2022-08-25T04:07:56.950Z,5.47
2022-08-25T04:10:25.386Z,6.03
2022-08-25T04:12:53.914Z,7.53
2022-08-25T04:15:22.307Z,6.20
2022-08-25T04:17:50.664Z,8.20
2022-08-25T04:20:20.815Z,6.70
2022-08-25T04:22:49.253Z,5.70
2022-08-25T04:25:19.172Z,6.90
2022-08-25T04:27:48.037Z,7.47
2022-08-25T04:30:16.899Z,6.67
2022-08-25T04:32:45.216Z,6.10
2022-08-25T04:35:13.505Z,6.43
2022-08-25T04:37:41.870Z,5.50
2022-08-25T04:40:11.676Z,6.03
2022-08-25T04:42:41.363Z,6.07
2022-08-25T04:45:10.269Z,6.10
2022-08-25T04:47:39.376Z,5.70
2022-08-25T04:50:08.546Z,5.80
2022-08-25T04:52:37.555Z,5.90
2022-08-25T04:55:06.358Z,5.97
2022-08-25T04:57:34.632Z,5.00
2022-08-25T05:00:05.759Z,5.70
2022-08-25T05:02:34.306Z,5.67
2022-08-25T05:05:04.081Z,4.63
2022-08-25T05:07:32.365Z,6.70
2022-08-25T05:10:00.702Z,7.50
2022-08-25T05:12:31.466Z,6.77
2022-08-25T05:15:21.888Z,6.90
2022-08-25T05:17:55.779Z,6.83
2022-08-25T05:20:26.383Z,5.97
2022-08-25T05:22:55.953Z,7.20
2022-08-25T05:25:24.749Z,6.20
2022-08-25T05:27:54.978Z,6.83
2022-08-25T05:30:24.061Z,5.97
2022-08-25T05:32:54.460Z,5.50
2022-08-25T05:35:23.096Z,5.30
2022-08-25T05:37:51.626Z,5.23
2022-08-25T05:40:20.454Z,5.87
2022-08-25T05:42:48.901Z,5.23
2022-08-25T06:44:27.061Z,4.60
2022-08-25T06:47:31.439Z,4.80
2022-08-25T08:16:22.374Z,5.00
2022-08-25T09:48:29.038Z,1.80
2022-08-25T09:55:35.788Z,2.23
2022-08-25T09:58:17.318Z,4.43
2022-08-25T10:00:47.240Z,1.40
2022-08-25T10:03:24.654Z,1.40
2022-08-25T10:06:29.448Z,1.30
2022-08-25T10:21:58.924Z,1.20
2022-08-25T10:24:31.605Z,1.30
2022-08-25T10:27:16.549Z,0.90
2022-08-25T10:30:17.683Z,1.03
2022-08-25T10:33:13.492Z,1.20
2022-08-25T10:36:05.797Z,1.17
2022-08-25T10:39:04.778Z,1.10
2022-08-25T10:42:02.434Z,1.20
2022-08-25T13:34:34.943Z,2.23
2022-08-25T13:37:33.586Z,2.10
2022-08-25T13:40:26.292Z,2.10
2022-08-25T18:04:27.305Z,2.10
2022-08-25T18:07:45.329Z,1.73
2022-08-25T18:44:57.913Z,2.83
2022-08-25T19:52:13.406Z,1.60
2022-08-25T19:54:48.766Z,1.40
2022-08-25T19:57:42.779Z,1.60
2022-08-25T20:00:16.229Z,1.70
2022-08-25T20:02:45.816Z,1.70
2022-08-25T20:05:16.968Z,1.77
2022-08-25T20:07:56.326Z,1.90
2022-08-25T20:10:27.932Z,1.80
2022-08-25T20:12:57.450Z,1.80
2022-08-25T20:15:26.498Z,1.60
2022-08-25T20:18:09.009Z,1.70
2022-08-25T20:20:43.376Z,1.43
2022-08-25T20:23:42.327Z,1.63
2022-08-25T20:26:29.214Z,2.00
2022-08-25T20:29:48.118Z,2.30
2022-08-25T20:32:52.033Z,1.47
2022-08-25T20:35:37.624Z,1.50
2022-08-25T20:38:12.872Z,1.40
2022-08-25T20:41:33.403Z,1.70
2022-08-25T20:44:42.684Z,1.60
2022-08-25T20:47:12.575Z,2.00
2022-08-25T20:49:47.223Z,1.87
2022-08-25T20:52:21.317Z,1.83
2022-08-25T20:54:51.317Z,1.63
2022-08-25T20:57:25.874Z,1.67
2022-08-25T20:59:56.141Z,1.63
2022-08-25T21:02:25.771Z,1.93
2022-08-25T21:04:57.160Z,1.67
2022-08-25T21:07:26.532Z,1.77
2022-08-25T21:09:56.925Z,1.80
2022-08-25T21:19:14.530Z,1.83
2022-08-25T21:21:50.602Z,2.77
2022-08-25T21:24:23.304Z,2.07
2022-08-25T21:26:53.618Z,2.00
2022-08-25T21:29:56.336Z,2.27
2022-08-25T21:32:25.045Z,2.27
2022-08-25T21:34:56.801Z,2.13
2022-08-25T21:37:27.440Z,1.73
2022-08-25T21:39:55.743Z,2.40
2022-08-25T21:42:25.132Z,2.27
2022-08-25T21:44:53.639Z,2.37
2022-08-25T21:47:23.358Z,2.00
2022-08-25T21:49:52.121Z,2.20
2022-08-25T21:52:21.864Z,2.33
2022-08-25T21:54:50.185Z,2.30
2022-08-25T21:57:23.646Z,2.13
2022-08-25T21:59:52.615Z,2.10
2022-08-25T22:02:23.094Z,2.40
2022-08-25T22:04:53.646Z,2.27
2022-08-25T22:07:24.911Z,1.90
2022-08-25T22:09:55.024Z,1.93
2022-08-25T22:12:23.854Z,2.50
2022-08-25T22:14:53.450Z,2.67
2022-08-25T22:17:24.368Z,2.10
2022-08-25T22:19:54.223Z,2.40
2022-08-25T22:22:25.064Z,2.20
2022-08-25T22:24:55.945Z,2.30
2022-08-25T22:27:25.263Z,2.63
2022-08-25T22:29:54.135Z,2.63
2022-08-25T22:32:22.458Z,2.60
2022-08-25T22:34:50.837Z,2.60
2022-08-25T22:37:19.443Z,2.60
2022-08-25T22:39:49.207Z,2.43
2022-08-25T22:42:18.439Z,2.30
2022-08-25T22:44:46.721Z,2.70
2022-08-25T22:47:15.056Z,2.40
2022-08-25T22:49:43.502Z,2.87
2022-08-25T22:52:13.350Z,2.60
2022-08-25T22:54:42.573Z,2.40
2022-08-25T22:57:13.187Z,2.53
2022-08-25T22:59:41.663Z,2.67
2022-08-25T23:02:10.001Z,3.20
2022-08-25T23:04:41.170Z,2.20
2022-08-25T23:07:10.256Z,2.50
2022-08-25T23:09:38.908Z,3.03
2022-08-25T23:12:07.744Z,2.43
2022-08-25T23:14:38.368Z,3.00
2022-08-25T23:17:10.699Z,2.30
2022-08-25T23:19:38.997Z,2.50
2022-08-25T23:22:09.375Z,2.60
2022-08-25T23:24:40.101Z,2.50
2022-08-25T23:27:14.473Z,2.53
2022-08-25T23:29:48.739Z,2.20
2022-08-25T23:32:18.313Z,2.67
2022-08-25T23:34:47.423Z,2.90
2022-08-25T23:37:18.387Z,2.67
2022-08-25T23:39:47.982Z,3.10
2022-08-25T23:42:19.121Z,2.53
2022-08-25T23:44:49.278Z,2.80
2022-08-25T23:47:17.738Z,2.80
2022-08-25T23:49:48.090Z,2.70
2022-08-25T23:52:17.442Z,2.50
2022-08-25T23:54:46.985Z,2.43
2022-08-25T23:57:15.684Z,2.50
2022-08-25T23:59:43.990Z,2.90
